sensor_id;sensor_type;location;lat;lon;timestamp;temperature;humidity
23507;DHT22;11930;53.076;18.250;2023-04-03T00:00:08;0.70;99.90
23507;DHT22;11930;53.076;18.250;2023-04-03T00:02:55;0.70;99.90
23507;DHT22;11930;53.076;18.250;2023-04-03T00:05:21;0.70;99.90
23507;DHT22;11930;53.076;18.250;2023-04-03T00:07:47;0.70;99.90
23507;DHT22;11930;53.076;18.250;2023-04-03T00:10:15;0.70;99.90
23507;DHT22;11930;53.076;18.250;2023-04-03T00:12:41;0.70;99.90
23507;DHT22;11930;53.076;18.250;2023-04-03T00:15:08;0.70;99.90
23507;DHT22;11930;53.076;18.250;2023-04-03T00:17:34;0.70;99.90
23507;DHT22;11930;53.076;18.250;2023-04-03T00:20:01;0.70;99.90
23507;DHT22;11930;53.076;18.250;2023-04-03T00:22:27;0.70;99.90
23507;DHT22;11930;53.076;18.250;2023-04-03T00:24:55;0.70;99.90
23507;DHT22;11930;53.076;18.250;2023-04-03T00:27:21;0.70;99.90
23507;DHT22;11930;53.076;18.250;2023-04-03T00:29:48;0.60;99.90
23507;DHT22;11930;53.076;18.250;2023-04-03T00:32:14;0.60;99.90
23507;DHT22;11930;53.076;18.250;2023-04-03T00:34:40;0.60;99.90
23507;DHT22;11930;53.076;18.250;2023-04-03T00:37:06;0.60;99.90
23507;DHT22;11930;53.076;18.250;2023-04-03T00:39:32;0.60;99.90
23507;DHT22;11930;53.076;18.250;2023-04-03T00:41:58;0.50;99.90
23507;DHT22;11930;53.076;18.250;2023-04-03T00:46:54;0.60;99.90
23507;DHT22;11930;53.076;18.250;2023-04-03T00:49:21;0.60;99.90
23507;DHT22;11930;53.076;18.250;2023-04-03T00:51:47;0.60;99.90
23507;DHT22;11930;53.076;18.250;2023-04-03T00:54:13;0.50;99.90
23507;DHT22;11930;53.076;18.250;2023-04-03T00:56:40;0.50;99.90
23507;DHT22;11930;53.076;18.250;2023-04-03T00:59:13;0.50;99.90
23507;DHT22;11930;53.076;18.250;2023-04-03T01:01:40;0.50;99.90
23507;DHT22;11930;53.076;18.250;2023-04-03T01:04:24;0.40;99.90
23507;DHT22;11930;53.076;18.250;2023-04-03T01:06:52;0.40;99.90
23507;DHT22;11930;53.076;18.250;2023-04-03T01:09:19;0.40;99.90
23507;DHT22;11930;53.076;18.250;2023-04-03T01:11:46;0.40;99.90
23507;DHT22;11930;53.076;18.250;2023-04-03T01:14:12;0.30;99.90
23507;DHT22;11930;53.076;18.250;2023-04-03T01:16:38;0.30;99.90
23507;DHT22;11930;53.076;18.250;2023-04-03T01:19:10;1.10;99.90
23507;DHT22;11930;53.076;18.250;2023-04-03T01:24:36;0.30;99.90
23507;DHT22;11930;53.076;18.250;2023-04-03T01:27:07;0.20;99.90
23507;DHT22;11930;53.076;18.250;2023-04-03T01:29:35;0.20;99.90
23507;DHT22;11930;53.076;18.250;2023-04-03T01:32:03;0.20;99.90
23507;DHT22;11930;53.076;18.250;2023-04-03T01:34:30;0.20;99.90
23507;DHT22;11930;53.076;18.250;2023-04-03T01:36:56;0.20;99.90
23507;DHT22;11930;53.076;18.250;2023-04-03T01:39:23;0.20;99.90
23507;DHT22;11930;53.076;18.250;2023-04-03T01:41:50;0.10;99.90
23507;DHT22;11930;53.076;18.250;2023-04-03T01:44:28;0.10;99.90
23507;DHT22;11930;53.076;18.250;2023-04-03T01:46:54;0.00;99.90
23507;DHT22;11930;53.076;18.250;2023-04-03T01:49:22;-0.10;99.90
23507;DHT22;11930;53.076;18.250;2023-04-03T01:51:48;-0.10;99.90
23507;DHT22;11930;53.076;18.250;2023-04-03T01:54:15;-0.20;99.90
23507;DHT22;11930;53.076;18.250;2023-04-03T01:56:41;-0.20;99.90
23507;DHT22;11930;53.076;18.250;2023-04-03T01:59:08;-0.30;99.90
23507;DHT22;11930;53.076;18.250;2023-04-03T02:01:34;-0.30;99.90
23507;DHT22;11930;53.076;18.250;2023-04-03T02:04:00;-0.40;99.90
23507;DHT22;11930;53.076;18.250;2023-04-03T02:06:26;-0.40;99.90
23507;DHT22;11930;53.076;18.250;2023-04-03T02:08:52;-0.50;99.90
23507;DHT22;11930;53.076;18.250;2023-04-03T02:11:18;-0.50;99.90
23507;DHT22;11930;53.076;18.250;2023-04-03T02:13:46;-0.60;99.90
23507;DHT22;11930;53.076;18.250;2023-04-03T02:16:12;-0.60;99.90
23507;DHT22;11930;53.076;18.250;2023-04-03T02:18:39;-0.70;99.90
23507;DHT22;11930;53.076;18.250;2023-04-03T02:21:05;-0.70;99.90
23507;DHT22;11930;53.076;18.250;2023-04-03T02:23:31;-0.70;99.90
23507;DHT22;11930;53.076;18.250;2023-04-03T02:26:11;-0.80;99.90
23507;DHT22;11930;53.076;18.250;2023-04-03T02:28:39;-0.80;99.90
23507;DHT22;11930;53.076;18.250;2023-04-03T02:31:05;-0.80;99.90
23507;DHT22;11930;53.076;18.250;2023-04-03T02:33:33;-0.80;99.90
23507;DHT22;11930;53.076;18.250;2023-04-03T02:36:00;-0.80;99.90
23507;DHT22;11930;53.076;18.250;2023-04-03T02:38:26;-0.80;99.90
23507;DHT22;11930;53.076;18.250;2023-04-03T02:40:57;-0.80;99.90
23507;DHT22;11930;53.076;18.250;2023-04-03T02:43:25;-0.80;99.90
23507;DHT22;11930;53.076;18.250;2023-04-03T02:45:51;-0.80;99.90
23507;DHT22;11930;53.076;18.250;2023-04-03T02:48:17;-0.90;99.90
23507;DHT22;11930;53.076;18.250;2023-04-03T02:50:43;-0.90;99.90
23507;DHT22;11930;53.076;18.250;2023-04-03T02:53:09;-0.90;99.90
23507;DHT22;11930;53.076;18.250;2023-04-03T02:55:35;-0.90;99.90
23507;DHT22;11930;53.076;18.250;2023-04-03T02:58:02;-0.90;99.90
23507;DHT22;11930;53.076;18.250;2023-04-03T03:00:29;-0.80;99.90
23507;DHT22;11930;53.076;18.250;2023-04-03T03:02:55;-0.90;99.90
23507;DHT22;11930;53.076;18.250;2023-04-03T03:05:21;-0.90;99.90
23507;DHT22;11930;53.076;18.250;2023-04-03T03:07:47;-0.90;99.90
23507;DHT22;11930;53.076;18.250;2023-04-03T03:10:14;-0.90;99.90
23507;DHT22;11930;53.076;18.250;2023-04-03T03:12:40;-0.90;99.90
23507;DHT22;11930;53.076;18.250;2023-04-03T03:15:07;-0.90;99.90
23507;DHT22;11930;53.076;18.250;2023-04-03T03:17:34;-0.90;99.90
23507;DHT22;11930;53.076;18.250;2023-04-03T03:20:01;-0.80;99.90
23507;DHT22;11930;53.076;18.250;2023-04-03T03:22:28;-0.80;99.90
23507;DHT22;11930;53.076;18.250;2023-04-03T03:24:55;-0.90;99.90
23507;DHT22;11930;53.076;18.250;2023-04-03T03:27:21;-0.80;99.90
23507;DHT22;11930;53.076;18.250;2023-04-03T03:29:47;-0.80;99.90
23507;DHT22;11930;53.076;18.250;2023-04-03T03:32:13;-0.70;99.90
23507;DHT22;11930;53.076;18.250;2023-04-03T03:34:40;-0.70;99.90
23507;DHT22;11930;53.076;18.250;2023-04-03T03:37:06;-0.70;99.90
23507;DHT22;11930;53.076;18.250;2023-04-03T03:39:32;-0.70;99.90
23507;DHT22;11930;53.076;18.250;2023-04-03T03:41:58;-0.70;99.90
23507;DHT22;11930;53.076;18.250;2023-04-03T03:44:24;-0.70;99.90
23507;DHT22;11930;53.076;18.250;2023-04-03T03:46:50;-0.60;99.90
23507;DHT22;11930;53.076;18.250;2023-04-03T03:49:16;-0.60;99.90
23507;DHT22;11930;53.076;18.250;2023-04-03T03:51:43;-0.60;99.90
23507;DHT22;11930;53.076;18.250;2023-04-03T03:54:09;-0.60;99.90
23507;DHT22;11930;53.076;18.250;2023-04-03T03:56:36;-0.60;99.90
23507;DHT22;11930;53.076;18.250;2023-04-03T03:59:02;-0.50;99.90
23507;DHT22;11930;53.076;18.250;2023-04-03T04:01:28;-0.50;99.90
23507;DHT22;11930;53.076;18.250;2023-04-03T04:03:55;-0.50;99.90
23507;DHT22;11930;53.076;18.250;2023-04-03T04:06:26;-0.50;99.90
23507;DHT22;11930;53.076;18.250;2023-04-03T04:08:55;-0.50;99.90
23507;DHT22;11930;53.076;18.250;2023-04-03T04:11:21;-0.50;99.90
23507;DHT22;11930;53.076;18.250;2023-04-03T04:13:49;-0.50;99.90
23507;DHT22;11930;53.076;18.250;2023-04-03T04:16:17;-0.50;99.90
23507;DHT22;11930;53.076;18.250;2023-04-03T04:18:43;-0.50;99.90
23507;DHT22;11930;53.076;18.250;2023-04-03T04:21:09;-0.40;99.90
23507;DHT22;11930;53.076;18.250;2023-04-03T04:23:37;-0.40;99.90
23507;DHT22;11930;53.076;18.250;2023-04-03T04:26:04;-0.50;99.90
23507;DHT22;11930;53.076;18.250;2023-04-03T04:28:33;-0.40;99.90
23507;DHT22;11930;53.076;18.250;2023-04-03T04:31:01;-0.40;99.90
23507;DHT22;11930;53.076;18.250;2023-04-03T04:33:28;-0.40;99.90
23507;DHT22;11930;53.076;18.250;2023-04-03T04:35:57;-0.40;99.90
23507;DHT22;11930;53.076;18.250;2023-04-03T04:38:23;-0.40;99.90
23507;DHT22;11930;53.076;18.250;2023-04-03T04:40:52;-0.40;99.90
23507;DHT22;11930;53.076;18.250;2023-04-03T04:43:18;-0.40;99.90
23507;DHT22;11930;53.076;18.250;2023-04-03T04:45:47;-0.30;99.90
23507;DHT22;11930;53.076;18.250;2023-04-03T04:48:14;-0.30;99.90
23507;DHT22;11930;53.076;18.250;2023-04-03T04:50:41;-0.30;99.90
23507;DHT22;11930;53.076;18.250;2023-04-03T04:53:07;-0.30;99.90
23507;DHT22;11930;53.076;18.250;2023-04-03T04:55:34;-0.30;99.90
23507;DHT22;11930;53.076;18.250;2023-04-03T04:58:00;-0.30;99.90
23507;DHT22;11930;53.076;18.250;2023-04-03T05:00:26;-0.20;99.90
23507;DHT22;11930;53.076;18.250;2023-04-03T05:02:53;-0.20;99.90
23507;DHT22;11930;53.076;18.250;2023-04-03T05:05:20;-0.10;99.90
23507;DHT22;11930;53.076;18.250;2023-04-03T05:07:46;0.00;99.90
23507;DHT22;11930;53.076;18.250;2023-04-03T05:10:13;-0.10;99.90
23507;DHT22;11930;53.076;18.250;2023-04-03T05:12:41;0.00;99.90
23507;DHT22;11930;53.076;18.250;2023-04-03T05:15:08;0.10;99.90
23507;DHT22;11930;53.076;18.250;2023-04-03T05:17:35;0.20;99.90
23507;DHT22;11930;53.076;18.250;2023-04-03T05:20:03;0.30;99.90
23507;DHT22;11930;53.076;18.250;2023-04-03T05:22:30;0.30;99.90
23507;DHT22;11930;53.076;18.250;2023-04-03T05:25:03;0.40;99.90
23507;DHT22;11930;53.076;18.250;2023-04-03T05:27:29;0.50;99.90
23507;DHT22;11930;53.076;18.250;2023-04-03T05:29:58;0.60;99.90
23507;DHT22;11930;53.076;18.250;2023-04-03T05:32:25;0.70;99.90
23507;DHT22;11930;53.076;18.250;2023-04-03T05:37:30;1.30;99.90
23507;DHT22;11930;53.076;18.250;2023-04-03T05:39:57;1.60;99.90
23507;DHT22;11930;53.076;18.250;2023-04-03T05:42:23;1.70;99.90
23507;DHT22;11930;53.076;18.250;2023-04-03T05:44:50;1.80;99.90
23507;DHT22;11930;53.076;18.250;2023-04-03T05:47:17;1.80;99.90
23507;DHT22;11930;53.076;18.250;2023-04-03T05:49:43;1.90;99.90
23507;DHT22;11930;53.076;18.250;2023-04-03T05:52:27;2.00;99.90
23507;DHT22;11930;53.076;18.250;2023-04-03T05:54:55;2.10;99.90
23507;DHT22;11930;53.076;18.250;2023-04-03T05:57:25;2.30;99.90
23507;DHT22;11930;53.076;18.250;2023-04-03T05:59:51;2.30;99.90
23507;DHT22;11930;53.076;18.250;2023-04-03T06:02:21;2.40;99.90
23507;DHT22;11930;53.076;18.250;2023-04-03T06:04:49;2.50;99.90
23507;DHT22;11930;53.076;18.250;2023-04-03T06:07:17;2.60;99.90
23507;DHT22;11930;53.076;18.250;2023-04-03T06:09:45;2.60;99.90
23507;DHT22;11930;53.076;18.250;2023-04-03T06:12:11;2.70;99.90
23507;DHT22;11930;53.076;18.250;2023-04-03T06:14:38;2.80;99.90
23507;DHT22;11930;53.076;18.250;2023-04-03T06:17:04;2.80;99.90
23507;DHT22;11930;53.076;18.250;2023-04-03T06:19:30;2.90;99.90
23507;DHT22;11930;53.076;18.250;2023-04-03T06:21:57;2.90;99.90
23507;DHT22;11930;53.076;18.250;2023-04-03T06:24:24;3.00;99.90
23507;DHT22;11930;53.076;18.250;2023-04-03T06:26:51;3.00;99.90
23507;DHT22;11930;53.076;18.250;2023-04-03T06:29:19;3.00;99.90
23507;DHT22;11930;53.076;18.250;2023-04-03T06:31:46;3.10;99.90
23507;DHT22;11930;53.076;18.250;2023-04-03T06:34:13;3.10;99.90
23507;DHT22;11930;53.076;18.250;2023-04-03T06:36:40;3.20;99.90
23507;DHT22;11930;53.076;18.250;2023-04-03T06:39:06;3.30;99.90
23507;DHT22;11930;53.076;18.250;2023-04-03T06:41:32;3.50;99.90
23507;DHT22;11930;53.076;18.250;2023-04-03T06:43:59;3.50;99.90
23507;DHT22;11930;53.076;18.250;2023-04-03T06:46:26;3.60;99.90
23507;DHT22;11930;53.076;18.250;2023-04-03T06:48:53;3.60;99.90
23507;DHT22;11930;53.076;18.250;2023-04-03T06:51:30;3.70;99.90
23507;DHT22;11930;53.076;18.250;2023-04-03T06:53:58;3.70;99.90
23507;DHT22;11930;53.076;18.250;2023-04-03T06:56:25;3.60;99.90
23507;DHT22;11930;53.076;18.250;2023-04-03T06:58:52;3.70;99.90
23507;DHT22;11930;53.076;18.250;2023-04-03T07:01:21;3.70;99.90
23507;DHT22;11930;53.076;18.250;2023-04-03T07:03:49;3.70;99.90
23507;DHT22;11930;53.076;18.250;2023-04-03T07:06:17;3.80;99.90
23507;DHT22;11930;53.076;18.250;2023-04-03T07:08:44;3.80;99.90
23507;DHT22;11930;53.076;18.250;2023-04-03T07:11:11;3.90;99.90
23507;DHT22;11930;53.076;18.250;2023-04-03T07:16:06;3.90;99.90
23507;DHT22;11930;53.076;18.250;2023-04-03T07:18:33;4.10;99.90
23507;DHT22;11930;53.076;18.250;2023-04-03T07:21:00;4.20;99.90
23507;DHT22;11930;53.076;18.250;2023-04-03T07:23:31;4.10;99.50
23507;DHT22;11930;53.076;18.250;2023-04-03T07:25:57;4.00;99.20
23507;DHT22;11930;53.076;18.250;2023-04-03T07:28:25;3.80;97.40
23507;DHT22;11930;53.076;18.250;2023-04-03T07:30:54;3.80;96.90
23507;DHT22;11930;53.076;18.250;2023-04-03T07:33:22;3.90;95.60
23507;DHT22;11930;53.076;18.250;2023-04-03T07:35:49;3.90;94.70
23507;DHT22;11930;53.076;18.250;2023-04-03T07:38:15;4.00;92.60
23507;DHT22;11930;53.076;18.250;2023-04-03T07:40:46;4.10;91.70
23507;DHT22;11930;53.076;18.250;2023-04-03T07:43:13;4.10;92.00
23507;DHT22;11930;53.076;18.250;2023-04-03T07:48:06;4.70;91.20
23507;DHT22;11930;53.076;18.250;2023-04-03T07:50:33;5.00;85.60
23507;DHT22;11930;53.076;18.250;2023-04-03T07:52:59;5.00;82.80
23507;DHT22;11930;53.076;18.250;2023-04-03T07:55:25;5.10;79.70
23507;DHT22;11930;53.076;18.250;2023-04-03T07:57:51;5.20;80.00
23507;DHT22;11930;53.076;18.250;2023-04-03T08:00:17;5.30;75.30
23507;DHT22;11930;53.076;18.250;2023-04-03T08:02:45;5.40;75.50
23507;DHT22;11930;53.076;18.250;2023-04-03T08:05:17;5.40;71.10
23507;DHT22;11930;53.076;18.250;2023-04-03T08:07:44;5.30;74.40
23507;DHT22;11930;53.076;18.250;2023-04-03T08:10:11;5.30;71.60
23507;DHT22;11930;53.076;18.250;2023-04-03T08:12:37;5.60;69.80
23507;DHT22;11930;53.076;18.250;2023-04-03T08:15:03;5.70;67.10
23507;DHT22;11930;53.076;18.250;2023-04-03T08:17:30;5.60;67.60
23507;DHT22;11930;53.076;18.250;2023-04-03T08:19:56;5.70;69.80
23507;DHT22;11930;53.076;18.250;2023-04-03T08:22:22;5.80;67.40
23507;DHT22;11930;53.076;18.250;2023-04-03T08:24:48;5.90;65.40
23507;DHT22;11930;53.076;18.250;2023-04-03T08:27:14;5.90;64.50
23507;DHT22;11930;53.076;18.250;2023-04-03T08:29:40;6.00;67.00
23507;DHT22;11930;53.076;18.250;2023-04-03T08:32:06;6.00;64.10
23507;DHT22;11930;53.076;18.250;2023-04-03T08:34:33;6.20;61.50
23507;DHT22;11930;53.076;18.250;2023-04-03T08:39:27;5.70;60.90
23507;DHT22;11930;53.076;18.250;2023-04-03T08:41:58;5.40;61.40
23507;DHT22;11930;53.076;18.250;2023-04-03T08:44:52;5.40;62.00
23507;DHT22;11930;53.076;18.250;2023-04-03T08:47:30;5.50;61.90
23507;DHT22;11930;53.076;18.250;2023-04-03T08:50:16;5.50;60.90
23507;DHT22;11930;53.076;18.250;2023-04-03T08:52:48;5.40;61.50
23507;DHT22;11930;53.076;18.250;2023-04-03T08:55:23;5.40;60.90
23507;DHT22;11930;53.076;18.250;2023-04-03T08:58:06;5.70;63.90
23507;DHT22;11930;53.076;18.250;2023-04-03T09:03:31;6.30;58.70
23507;DHT22;11930;53.076;18.250;2023-04-03T09:06:20;6.20;56.80
23507;DHT22;11930;53.076;18.250;2023-04-03T09:19:54;6.30;60.70
23507;DHT22;11930;53.076;18.250;2023-04-03T09:22:25;6.70;59.20
23507;DHT22;11930;53.076;18.250;2023-04-03T09:25:20;6.80;59.00
23507;DHT22;11930;53.076;18.250;2023-04-03T09:27:47;7.00;60.00
23507;DHT22;11930;53.076;18.250;2023-04-03T09:30:15;7.20;61.40
23507;DHT22;11930;53.076;18.250;2023-04-03T09:32:45;7.60;61.50
23507;DHT22;11930;53.076;18.250;2023-04-03T09:35:25;7.60;60.50
23507;DHT22;11930;53.076;18.250;2023-04-03T09:37:58;7.70;59.00
23507;DHT22;11930;53.076;18.250;2023-04-03T09:42:57;7.00;56.90
23507;DHT22;11930;53.076;18.250;2023-04-03T09:45:33;6.40;59.40
23507;DHT22;11930;53.076;18.250;2023-04-03T09:53:41;6.40;59.30
23507;DHT22;11930;53.076;18.250;2023-04-03T09:56:29;6.40;60.10
23507;DHT22;11930;53.076;18.250;2023-04-03T10:04:12;6.10;60.10
23507;DHT22;11930;53.076;18.250;2023-04-03T10:06:42;5.90;59.70
23507;DHT22;11930;53.076;18.250;2023-04-03T10:09:23;5.70;61.00
23507;DHT22;11930;53.076;18.250;2023-04-03T10:12:11;5.60;61.10
23507;DHT22;11930;53.076;18.250;2023-04-03T10:15:01;5.40;60.30
23507;DHT22;11930;53.076;18.250;2023-04-03T10:22:56;5.00;63.30
23507;DHT22;11930;53.076;18.250;2023-04-03T10:30:29;5.70;63.70
23507;DHT22;11930;53.076;18.250;2023-04-03T10:36:10;6.00;64.50
23507;DHT22;11930;53.076;18.250;2023-04-03T10:39:21;6.20;63.90
23507;DHT22;11930;53.076;18.250;2023-04-03T10:53:30;6.30;60.80
23507;DHT22;11930;53.076;18.250;2023-04-03T10:56:18;6.30;59.60
23507;DHT22;11930;53.076;18.250;2023-04-03T10:59:02;5.90;58.70
23507;DHT22;11930;53.076;18.250;2023-04-03T11:01:36;5.80;59.60
23507;DHT22;11930;53.076;18.250;2023-04-03T11:04:04;5.80;61.50
23507;DHT22;11930;53.076;18.250;2023-04-03T11:06:44;5.90;60.90
23507;DHT22;11930;53.076;18.250;2023-04-03T11:11:55;6.00;59.70
23507;DHT22;11930;53.076;18.250;2023-04-03T11:19:49;6.20;60.80
23507;DHT22;11930;53.076;18.250;2023-04-03T11:22:32;6.30;59.60
23507;DHT22;11930;53.076;18.250;2023-04-03T11:25:22;6.30;59.30
23507;DHT22;11930;53.076;18.250;2023-04-03T11:28:03;6.40;59.00
23507;DHT22;11930;53.076;18.250;2023-04-03T11:30:49;6.60;58.60
23507;DHT22;11930;53.076;18.250;2023-04-03T11:33:51;6.60;58.30
23507;DHT22;11930;53.076;18.250;2023-04-03T11:36:33;6.70;59.50
23507;DHT22;11930;53.076;18.250;2023-04-03T11:39:24;6.70;59.10
23507;DHT22;11930;53.076;18.250;2023-04-03T11:41:51;6.50;58.20
23507;DHT22;11930;53.076;18.250;2023-04-03T11:47:00;6.00;58.50
23507;DHT22;11930;53.076;18.250;2023-04-03T12:29:20;6.40;63.30
23507;DHT22;11930;53.076;18.250;2023-04-03T12:35:19;6.30;60.20
23507;DHT22;11930;53.076;18.250;2023-04-03T12:46:23;6.10;62.30
23507;DHT22;11930;53.076;18.250;2023-04-03T12:51:32;6.10;62.90
23507;DHT22;11930;53.076;18.250;2023-04-03T12:56:39;6.10;62.60
23507;DHT22;11930;53.076;18.250;2023-04-03T12:59:23;6.10;63.00
23507;DHT22;11930;53.076;18.250;2023-04-03T13:01:54;5.90;63.70
23507;DHT22;11930;53.076;18.250;2023-04-03T13:04:22;5.70;64.00
23507;DHT22;11930;53.076;18.250;2023-04-03T13:09:22;5.60;64.90
23507;DHT22;11930;53.076;18.250;2023-04-03T13:11:50;5.60;65.60
23507;DHT22;11930;53.076;18.250;2023-04-03T13:14:22;5.60;64.40
23507;DHT22;11930;53.076;18.250;2023-04-03T13:17:27;5.50;62.90
23507;DHT22;11930;53.076;18.250;2023-04-03T13:19:54;5.50;63.60
23507;DHT22;11930;53.076;18.250;2023-04-03T13:22:33;5.50;64.90
23507;DHT22;11930;53.076;18.250;2023-04-03T13:25:07;5.70;64.70
23507;DHT22;11930;53.076;18.250;2023-04-03T13:27:34;5.90;64.30
23507;DHT22;11930;53.076;18.250;2023-04-03T13:30:05;6.00;63.90
23507;DHT22;11930;53.076;18.250;2023-04-03T13:32:31;6.10;63.40
23507;DHT22;11930;53.076;18.250;2023-04-03T13:34:58;6.00;64.50
23507;DHT22;11930;53.076;18.250;2023-04-03T13:37:30;6.10;65.10
23507;DHT22;11930;53.076;18.250;2023-04-03T13:42:28;6.20;62.70
23507;DHT22;11930;53.076;18.250;2023-04-03T13:45:19;6.20;63.40
23507;DHT22;11930;53.076;18.250;2023-04-03T13:47:48;6.10;64.90
23507;DHT22;11930;53.076;18.250;2023-04-03T13:50:24;5.90;63.30
23507;DHT22;11930;53.076;18.250;2023-04-03T13:53:00;5.70;63.10
23507;DHT22;11930;53.076;18.250;2023-04-03T13:55:32;5.60;62.10
23507;DHT22;11930;53.076;18.250;2023-04-03T13:58:02;5.40;64.00
23507;DHT22;11930;53.076;18.250;2023-04-03T14:02:58;5.40;67.10
23507;DHT22;11930;53.076;18.250;2023-04-03T14:05:25;5.50;70.20
23507;DHT22;11930;53.076;18.250;2023-04-03T14:07:53;5.60;70.50
23507;DHT22;11930;53.076;18.250;2023-04-03T14:10:20;5.60;71.00
23507;DHT22;11930;53.076;18.250;2023-04-03T14:12:46;5.60;70.10
23507;DHT22;11930;53.076;18.250;2023-04-03T14:15:31;5.50;69.40
23507;DHT22;11930;53.076;18.250;2023-04-03T14:17:57;5.40;68.90
23507;DHT22;11930;53.076;18.250;2023-04-03T14:20:26;5.30;69.10
23507;DHT22;11930;53.076;18.250;2023-04-03T14:22:53;5.20;68.40
23507;DHT22;11930;53.076;18.250;2023-04-03T14:25:20;5.00;67.70
23507;DHT22;11930;53.076;18.250;2023-04-03T14:27:49;4.90;68.90
23507;DHT22;11930;53.076;18.250;2023-04-03T14:30:26;4.90;69.50
23507;DHT22;11930;53.076;18.250;2023-04-03T14:32:53;4.90;69.80
23507;DHT22;11930;53.076;18.250;2023-04-03T14:35:20;4.90;69.60
23507;DHT22;11930;53.076;18.250;2023-04-03T14:37:50;5.10;67.80
23507;DHT22;11930;53.076;18.250;2023-04-03T14:40:24;5.10;66.50
23507;DHT22;11930;53.076;18.250;2023-04-03T14:42:51;5.20;66.10
23507;DHT22;11930;53.076;18.250;2023-04-03T14:45:17;5.30;66.40
23507;DHT22;11930;53.076;18.250;2023-04-03T14:47:49;5.40;67.40
23507;DHT22;11930;53.076;18.250;2023-04-03T14:50:20;5.50;64.90
23507;DHT22;11930;53.076;18.250;2023-04-03T14:52:48;5.30;65.10
23507;DHT22;11930;53.076;18.250;2023-04-03T14:55:16;5.30;66.30
23507;DHT22;11930;53.076;18.250;2023-04-03T14:57:43;5.30;65.60
23507;DHT22;11930;53.076;18.250;2023-04-03T15:00:17;5.20;65.50
23507;DHT22;11930;53.076;18.250;2023-04-03T15:02:43;5.00;65.50
23507;DHT22;11930;53.076;18.250;2023-04-03T15:05:11;4.90;67.40
23507;DHT22;11930;53.076;18.250;2023-04-03T15:07:39;4.90;68.20
23507;DHT22;11930;53.076;18.250;2023-04-03T15:12:41;4.80;68.50
23507;DHT22;11930;53.076;18.250;2023-04-03T15:15:08;4.70;67.20
23507;DHT22;11930;53.076;18.250;2023-04-03T15:17:35;4.70;67.00
23507;DHT22;11930;53.076;18.250;2023-04-03T15:20:02;4.70;66.40
23507;DHT22;11930;53.076;18.250;2023-04-03T15:22:28;4.70;66.00
23507;DHT22;11930;53.076;18.250;2023-04-03T15:24:54;4.60;65.90
23507;DHT22;11930;53.076;18.250;2023-04-03T15:27:20;4.50;66.30
23507;DHT22;11930;53.076;18.250;2023-04-03T15:29:46;4.50;66.70
23507;DHT22;11930;53.076;18.250;2023-04-03T15:32:13;4.50;68.10
23507;DHT22;11930;53.076;18.250;2023-04-03T15:34:39;4.60;68.00
23507;DHT22;11930;53.076;18.250;2023-04-03T15:37:06;4.60;67.40
23507;DHT22;11930;53.076;18.250;2023-04-03T15:39:32;4.70;69.10
23507;DHT22;11930;53.076;18.250;2023-04-03T15:41:59;4.70;70.10
23507;DHT22;11930;53.076;18.250;2023-04-03T15:44:35;4.60;70.20
23507;DHT22;11930;53.076;18.250;2023-04-03T15:47:02;4.40;69.60
23507;DHT22;11930;53.076;18.250;2023-04-03T15:49:28;4.40;70.40
23507;DHT22;11930;53.076;18.250;2023-04-03T15:51:54;4.20;70.70
23507;DHT22;11930;53.076;18.250;2023-04-03T15:54:21;4.20;71.10
23507;DHT22;11930;53.076;18.250;2023-04-03T15:56:46;4.10;70.20
23507;DHT22;11930;53.076;18.250;2023-04-03T15:59:13;3.90;68.70
23507;DHT22;11930;53.076;18.250;2023-04-03T16:01:39;3.90;67.20
23507;DHT22;11930;53.076;18.250;2023-04-03T16:04:07;3.90;67.70
23507;DHT22;11930;53.076;18.250;2023-04-03T16:06:34;4.00;68.30
23507;DHT22;11930;53.076;18.250;2023-04-03T16:09:00;4.00;67.90
23507;DHT22;11930;53.076;18.250;2023-04-03T16:11:27;4.10;68.30
23507;DHT22;11930;53.076;18.250;2023-04-03T16:13:54;4.00;68.30
23507;DHT22;11930;53.076;18.250;2023-04-03T16:16:20;4.00;67.30
23507;DHT22;11930;53.076;18.250;2023-04-03T16:18:47;4.00;67.20
23507;DHT22;11930;53.076;18.250;2023-04-03T16:21:15;4.00;67.60
23507;DHT22;11930;53.076;18.250;2023-04-03T16:23:42;4.00;67.80
23507;DHT22;11930;53.076;18.250;2023-04-03T16:26:09;4.00;67.20
23507;DHT22;11930;53.076;18.250;2023-04-03T16:28:35;4.10;68.20
23507;DHT22;11930;53.076;18.250;2023-04-03T16:31:01;4.20;70.80
23507;DHT22;11930;53.076;18.250;2023-04-03T16:33:29;4.20;71.10
23507;DHT22;11930;53.076;18.250;2023-04-03T16:35:55;4.10;71.80
23507;DHT22;11930;53.076;18.250;2023-04-03T16:38:22;4.00;72.30
23507;DHT22;11930;53.076;18.250;2023-04-03T16:40:49;4.00;72.50
23507;DHT22;11930;53.076;18.250;2023-04-03T16:43:16;3.90;73.30
23507;DHT22;11930;53.076;18.250;2023-04-03T16:45:42;3.90;74.30
23507;DHT22;11930;53.076;18.250;2023-04-03T16:48:08;3.90;75.20
23507;DHT22;11930;53.076;18.250;2023-04-03T16:50:34;3.80;74.80
23507;DHT22;11930;53.076;18.250;2023-04-03T16:53:01;3.70;74.60
23507;DHT22;11930;53.076;18.250;2023-04-03T16:55:28;3.60;75.50
23507;DHT22;11930;53.076;18.250;2023-04-03T16:57:55;3.50;76.40
23507;DHT22;11930;53.076;18.250;2023-04-03T17:00:21;3.40;77.00
23507;DHT22;11930;53.076;18.250;2023-04-03T17:02:47;3.40;77.90
23507;DHT22;11930;53.076;18.250;2023-04-03T17:05:13;3.30;79.00
23507;DHT22;11930;53.076;18.250;2023-04-03T17:07:39;3.30;79.10
23507;DHT22;11930;53.076;18.250;2023-04-03T17:10:06;3.20;80.30
23507;DHT22;11930;53.076;18.250;2023-04-03T17:12:32;3.20;81.70
23507;DHT22;11930;53.076;18.250;2023-04-03T17:14:58;3.20;84.30
23507;DHT22;11930;53.076;18.250;2023-04-03T17:17:25;3.20;85.90
23507;DHT22;11930;53.076;18.250;2023-04-03T17:19:51;3.20;86.10
23507;DHT22;11930;53.076;18.250;2023-04-03T17:22:20;3.20;86.50
23507;DHT22;11930;53.076;18.250;2023-04-03T17:24:46;3.10;86.90
23507;DHT22;11930;53.076;18.250;2023-04-03T17:27:12;3.10;87.00
23507;DHT22;11930;53.076;18.250;2023-04-03T17:29:38;3.10;88.00
23507;DHT22;11930;53.076;18.250;2023-04-03T17:32:05;3.10;87.60
23507;DHT22;11930;53.076;18.250;2023-04-03T17:34:31;3.00;88.30
23507;DHT22;11930;53.076;18.250;2023-04-03T17:36:58;3.00;89.40
23507;DHT22;11930;53.076;18.250;2023-04-03T17:39:25;3.00;90.10
23507;DHT22;11930;53.076;18.250;2023-04-03T17:41:51;2.90;90.30
23507;DHT22;11930;53.076;18.250;2023-04-03T17:44:20;2.80;91.30
23507;DHT22;11930;53.076;18.250;2023-04-03T17:46:47;2.80;91.10
23507;DHT22;11930;53.076;18.250;2023-04-03T17:49:13;2.60;90.80
23507;DHT22;11930;53.076;18.250;2023-04-03T17:51:40;2.60;91.60
23507;DHT22;11930;53.076;18.250;2023-04-03T17:54:07;2.50;91.80
23507;DHT22;11930;53.076;18.250;2023-04-03T17:56:33;2.50;92.40
23507;DHT22;11930;53.076;18.250;2023-04-03T17:58:59;2.40;93.00
23507;DHT22;11930;53.076;18.250;2023-04-03T18:01:31;2.40;92.70
23507;DHT22;11930;53.076;18.250;2023-04-03T18:04:00;2.30;92.90